Wetterdaten: Woche 09.05.16 - 15.05.16 (KW19)
Datum Zeit Temp. I. Temp. A. Feuchte I. Feuchte A. Luftdruck Regen Wind Richtung Sonnenschein UV Solar Taupunkt Windchill Windben
09.05.2016 00:00 23,7 C 12,8 C 43 % 70 % 1015,4 hPa 0,0 l/m 2,1 km/h (1 Bft) O-NO 0,00 h 0,0 UV-I 0 W/m 7,5 C 12,6 C 5,3 km/h (1 Bft)
09.05.2016 01:00 23,6 C 11,8 C 43 % 75 % 1015,4 hPa 0,0 l/m 0,0 km/h (0 Bft) N 0,00 h 0,0 UV-I 0 W/m 7,5 C 11,8 C 0,2 km/h (0 Bft)
09.05.2016 02:00 23,6 C 11,0 C 44 % 79 % 1015,1 hPa 0,0 l/m 0,1 km/h (0 Bft) N-NO 0,00 h 0,0 UV-I 0 W/m 7,4 C 11,0 C 1,0 km/h (0 Bft)
09.05.2016 03:00 23,6 C 10,6 C 44 % 80 % 1014,9 hPa 0,0 l/m 0,2 km/h (0 Bft) N-NO 0,00 h 0,0 UV-I 0 W/m 7,3 C 10,6 C 0,7 km/h (0 Bft)
09.05.2016 04:00 23,6 C 10,4 C 44 % 82 % 1014,8 hPa 0,0 l/m 1,4 km/h (1 Bft) O-NO 0,00 h 0,0 UV-I 0 W/m 7,3 C 10,4 C 4,2 km/h (1 Bft)
09.05.2016 05:00 23,5 C 10,5 C 44 % 82 % 1014,7 hPa 0,0 l/m 6,5 km/h (2 Bft) O-NO 0,00 h 0,0 UV-I 7 W/m 7,5 C 9,4 C 12,8 km/h (3 Bft)
09.05.2016 06:00 23,6 C 10,4 C 45 % 82 % 1015,1 hPa 0,0 l/m 5,0 km/h (1 Bft) O-NO 0,00 h 0,0 UV-I 18 W/m 7,5 C 9,8 C 10,1 km/h (2 Bft)
09.05.2016 07:00 23,7 C 12,1 C 45 % 77 % 1015,2 hPa 0,0 l/m 3,3 km/h (1 Bft) O-NO 0,78 h 0,7 UV-I 216 W/m 8,3 C 11,9 C 9,0 km/h (2 Bft)
09.05.2016 15:00 24,4 C 22,3 C 41 % 39 % 1014,4 hPa 0,0 l/m 7,3 km/h (2 Bft) O-SO 1,28 h 3,6 UV-I 634 W/m 7,6 C 21,7 C 16,0 km/h (3 Bft)
09.05.2016 16:00 24,4 C 22,1 C 41 % 36 % 1014,3 hPa 0,0 l/m 8,0 km/h (2 Bft) O-SO 1,00 h 2,9 UV-I 504 W/m 6,4 C 21,3 C 16,3 km/h (3 Bft)
09.05.2016 17:00 24,3 C 21,7 C 41 % 36 % 1014,0 hPa 0,0 l/m 9,1 km/h (2 Bft) O-SO 0,98 h 1,7 UV-I 422 W/m 6,0 C 20,7 C 18,2 km/h (3 Bft)
09.05.2016 18:00 24,2 C 20,6 C 40 % 38 % 1014,0 hPa 0,0 l/m 4,4 km/h (1 Bft) O-SO 0,00 h 0,7 UV-I 53 W/m 5,9 C 20,4 C 12,3 km/h (3 Bft)
09.05.2016 19:00 24,3 C 19,4 C 41 % 41 % 1014,1 hPa 0,0 l/m 3,4 km/h (1 Bft) O 0,00 h 0,0 UV-I 28 W/m 5,9 C 19,3 C 9,2 km/h (2 Bft)
09.05.2016 20:00 24,2 C 18,0 C 41 % 46 % 1014,3 hPa 0,0 l/m 0,7 km/h (0 Bft) O 0,00 h 0,0 UV-I 13 W/m 6,3 C 18,0 C 3,0 km/h (1 Bft)
09.05.2016 21:00 24,1 C 17,1 C 42 % 48 % 1014,5 hPa 0,0 l/m 2,7 km/h (1 Bft) O-SO 0,00 h 0,0 UV-I 0 W/m 6,0 C 17,0 C 7,3 km/h (2 Bft)
09.05.2016 22:00 24,3 C 16,6 C 43 % 50 % 1014,7 hPa 0,0 l/m 1,9 km/h (1 Bft) O-SO 0,00 h 0,0 UV-I 0 W/m 6,0 C 16,6 C 5,2 km/h (1 Bft)
09.05.2016 23:00 24,1 C 14,6 C 43 % 57 % 1014,8 hPa 0,0 l/m 0,1 km/h (0 Bft) O-NO 0,00 h 0,0 UV-I 0 W/m 6,3 C 14,6 C 0,7 km/h (0 Bft)
10.05.2016 00:00 24,0 C 13,6 C 43 % 63 % 1014,8 hPa 0,0 l/m 0,7 km/h (0 Bft) O-NO 0,00 h 0,0 UV-I 0 W/m 6,6 C 13,6 C 1,9 km/h (1 Bft)
10.05.2016 01:00 23,9 C 13,3 C 44 % 66 % 1014,4 hPa 0,0 l/m 1,5 km/h (1 Bft) O-NO 0,00 h 0,0 UV-I 0 W/m 7,2 C 13,3 C 5,4 km/h (1 Bft)
10.05.2016 02:00 23,8 C 12,2 C 44 % 70 % 1014,0 hPa 0,0 l/m 0,3 km/h (0 Bft) NO 0,00 h 0,0 UV-I 0 W/m 7,0 C 12,2 C 1,4 km/h (1 Bft)
10.05.2016 03:00 23,8 C 11,9 C 44 % 72 % 1013,3 hPa 0,0 l/m 1,1 km/h (1 Bft) O-NO 0,00 h 0,0 UV-I 0 W/m 7,1 C 11,9 C 3,7 km/h (1 Bft)
10.05.2016 04:00 23,8 C 11,7 C 45 % 75 % 1012,9 hPa 0,0 l/m 2,2 km/h (1 Bft) O-NO 0,00 h 0,0 UV-I 0 W/m 7,3 C 11,7 C 6,5 km/h (2 Bft)
10.05.2016 05:00 23,7 C 11,3 C 45 % 77 % 1013,0 hPa 0,0 l/m 0,9 km/h (0 Bft) O-NO 0,00 h 0,0 UV-I 9 W/m 7,4 C 11,3 C 2,6 km/h (1 Bft)
10.05.2016 06:00 23,7 C 10,9 C 45 % 80 % 1013,0 hPa 0,0 l/m 0,2 km/h (0 Bft) O-NO 0,00 h 0,0 UV-I 26 W/m 7,6 C 10,9 C 0,9 km/h (0 Bft)
10.05.2016 07:00 23,8 C 12,5 C 45 % 76 % 1012,7 hPa 0,0 l/m 1,9 km/h (1 Bft) O 0,80 h 0,7 UV-I 230 W/m 8,4 C 12,5 C 5,6 km/h (1 Bft)
10.05.2016 08:00 24,0 C 14,4 C 45 % 71 % 1012,1 hPa 0,0 l/m 3,5 km/h (1 Bft) O-SO 1,00 h 1,4 UV-I 401 W/m 9,3 C 14,3 C 8,4 km/h (2 Bft)
10.05.2016 09:00 24,3 C 15,8 C 45 % 68 % 1011,7 hPa 0,0 l/m 5,5 km/h (1 Bft) O 1,00 h 2,4 UV-I 517 W/m 9,9 C 15,4 C 14,5 km/h (3 Bft)
10.05.2016 10:00 24,2 C 17,5 C 45 % 63 % 1011,5 hPa 0,0 l/m 7,8 km/h (2 Bft) O-SO 1,00 h 3,4 UV-I 600 W/m 10,3 C 16,3 C 17,3 km/h (3 Bft)
10.05.2016 11:00 24,4 C 19,1 C 45 % 57 % 1011,2 hPa 0,0 l/m 7,7 km/h (2 Bft) O-SO 1,00 h 4,8 UV-I 781 W/m 10,5 C 18,1 C 18,2 km/h (3 Bft)
10.05.2016 12:00 24,4 C 20,3 C 45 % 53 % 1010,7 hPa 0,0 l/m 7,9 km/h (2 Bft) SO 1,00 h 5,4 UV-I 792 W/m 10,3 C 19,4 C 17,7 km/h (3 Bft)
10.05.2016 13:00 24,4 C 21,4 C 45 % 49 % 1010,3 hPa 0,0 l/m 8,4 km/h (2 Bft) SO 1,00 h 5,4 UV-I 793 W/m 10,2 C 20,5 C 18,8 km/h (3 Bft)
10.05.2016 14:00 24,4 C 21,7 C 45 % 45 % 1009,9 hPa 0,0 l/m 8,1 km/h (2 Bft) O-SO 1,00 h 4,8 UV-I 725 W/m 9,1 C 20,9 C 18,3 km/h (3 Bft)
10.05.2016 15:00 24,6 C 22,1 C 45 % 44 % 1009,4 hPa 0,0 l/m 8,7 km/h (2 Bft) SO 1,00 h 3,9 UV-I 652 W/m 9,2 C 21,2 C 18,9 km/h (3 Bft)
10.05.2016 16:00 24,6 C 21,8 C 45 % 43 % 1009,2 hPa 0,0 l/m 6,6 km/h (2 Bft) SO 1,00 h 2,5 UV-I 437 W/m 8,7 C 21,3 C 15,6 km/h (3 Bft)
10.05.2016 17:00 24,6 C 21,0 C 45 % 45 % 1009,1 hPa 0,0 l/m 8,5 km/h (2 Bft) SO 0,97 h 1,4 UV-I 315 W/m 8,7 C 20,1 C 18,4 km/h (3 Bft)
10.05.2016 18:00 24,6 C 19,6 C 45 % 51 % 1009,0 hPa 0,0 l/m 7,3 km/h (2 Bft) SO 0,00 h 0,7 UV-I 94 W/m 9,2 C 18,8 C 15,9 km/h (3 Bft)
10.05.2016 19:00 24,5 C 18,4 C 45 % 55 % 1009,4 hPa 0,0 l/m 5,5 km/h (1 Bft) SO 0,00 h 0,5 UV-I 54 W/m 9,3 C 17,9 C 12,6 km/h (3 Bft)
10.05.2016 20:00 24,5 C 16,9 C 46 % 60 % 1009,9 hPa 0,0 l/m 3,4 km/h (1 Bft) O-SO 0,00 h 0,0 UV-I 15 W/m 9,1 C 16,6 C 8,8 km/h (2 Bft)
10.05.2016 21:00 24,4 C 15,6 C 47 % 65 % 1010,2 hPa 0,0 l/m 1,0 km/h (0 Bft) O-SO 0,00 h 0,0 UV-I 0 W/m 9,0 C 15,6 C 3,9 km/h (1 Bft)
10.05.2016 22:00 24,6 C 14,9 C 47 % 68 % 1010,2 hPa 0,0 l/m 1,0 km/h (0 Bft) O-SO 0,00 h 0,0 UV-I 0 W/m 8,9 C 14,9 C 4,2 km/h (1 Bft)
10.05.2016 23:00 24,5 C 14,0 C 47 % 72 % 1010,1 hPa 0,0 l/m 1,2 km/h (1 Bft) O 0,00 h 0,0 UV-I 0 W/m 9,1 C 14,0 C 3,3 km/h (1 Bft)
11.05.2016 00:00 24,3 C 13,4 C 48 % 76 % 1009,7 hPa 0,0 l/m 1,9 km/h (1 Bft) O 0,00 h 0,0 UV-I 0 W/m 9,3 C 13,4 C 5,7 km/h (1 Bft)
11.05.2016 01:00 24,2 C 12,8 C 48 % 80 % 1009,5 hPa 0,0 l/m 1,2 km/h (1 Bft) O 0,00 h 0,0 UV-I 0 W/m 9,4 C 12,7 C 3,7 km/h (1 Bft)
11.05.2016 02:00 24,1 C 12,4 C 48 % 83 % 1009,4 hPa 0,0 l/m 1,1 km/h (1 Bft) O-SO 0,00 h 0,0 UV-I 0 W/m 9,5 C 12,4 C 2,6 km/h (1 Bft)
11.05.2016 03:00 24,1 C 11,6 C 49 % 85 % 1009,3 hPa 0,0 l/m 0,9 km/h (0 Bft) O 0,00 h 0,0 UV-I 0 W/m 9,3 C 11,6 C 2,7 km/h (1 Bft)
11.05.2016 04:00 24,0 C 11,2 C 49 % 87 % 1009,0 hPa 0,0 l/m 2,0 km/h (1 Bft) O-NO 0,00 h 0,0 UV-I 0 W/m 9,1 C 11,1 C 5,5 km/h (1 Bft)
11.05.2016 05:00 24,0 C 11,0 C 49 % 88 % 1008,8 hPa 0,0 l/m 0,8 km/h (0 Bft) O 0,00 h 0,0 UV-I 11 W/m 9,1 C 10,9 C 2,9 km/h (1 Bft)
11.05.2016 06:00 23,9 C 11,4 C 49 % 86 % 1008,9 hPa 0,0 l/m 2,4 km/h (1 Bft) O 0,00 h 0,0 UV-I 26 W/m 9,2 C 11,4 C 6,2 km/h (2 Bft)
11.05.2016 07:00 23,9 C 11,8 C 49 % 84 % 1008,8 hPa 0,0 l/m 2,8 km/h (1 Bft) O-NO 0,03 h 0,6 UV-I 69 W/m 9,1 C 11,7 C 9,4 km/h (2 Bft)
11.05.2016 08:00 24,2 C 12,2 C 48 % 82 % 1008,7 hPa 0,0 l/m 3,8 km/h (1 Bft) O 0,73 h 0,9 UV-I 182 W/m 9,1 C 11,8 C 11,3 km/h (2 Bft)
11.05.2016 09:00 24,3 C 12,7 C 48 % 79 % 1008,5 hPa 0,0 l/m 4,9 km/h (1 Bft) O-NO 0,97 h 1,4 UV-I 240 W/m 9,3 C 12,4 C 12,8 km/h (3 Bft)
11.05.2016 10:00 24,2 C 12,9 C 47 % 78 % 1008,6 hPa 0,0 l/m 4,8 km/h (1 Bft) O 1,00 h 1,6 UV-I 234 W/m 9,3 C 12,5 C 11,6 km/h (2 Bft)
11.05.2016 11:00 24,5 C 14,6 C 47 % 72 % 1008,2 hPa 0,0 l/m 7,2 km/h (2 Bft) O 1,00 h 3,6 UV-I 447 W/m 9,6 C 13,6 C 17,1 km/h (3 Bft)
11.05.2016 12:00 24,3 C 16,3 C 45 % 66 % 1007,5 hPa 0,0 l/m 7,2 km/h (2 Bft) O-NO 1,00 h 5,0 UV-I 788 W/m 10,0 C 15,4 C 18,0 km/h (3 Bft)
11.05.2016 13:00 24,3 C 18,0 C 46 % 60 % 1006,8 hPa 0,0 l/m 5,3 km/h (1 Bft) O 1,00 h 5,6 UV-I 841 W/m 10,1 C 17,6 C 14,7 km/h (3 Bft)
11.05.2016 14:00 24,3 C 18,9 C 46 % 55 % 1006,1 hPa 0,0 l/m 8,6 km/h (2 Bft) O 1,00 h 4,8 UV-I 756 W/m 9,6 C 17,7 C 20,2 km/h (4 Bft)
11.05.2016 15:00 24,4 C 19,6 C 46 % 53 % 1005,5 hPa 0,0 l/m 8,4 km/h (2 Bft) O 1,00 h 3,7 UV-I 611 W/m 9,6 C 18,5 C 19,9 km/h (4 Bft)
11.05.2016 16:00 24,3 C 19,4 C 46 % 50 % 1005,1 hPa 0,0 l/m 9,9 km/h (2 Bft) O-SO 1,00 h 2,6 UV-I 479 W/m 8,8 C 18,0 C 22,0 km/h (4 Bft)
11.05.2016 17:00 24,3 C 18,9 C 45 % 50 % 1004,6 hPa 0,0 l/m 8,4 km/h (2 Bft) O-SO 0,95 h 1,4 UV-I 297 W/m 8,4 C 17,8 C 19,5 km/h (3 Bft)
11.05.2016 18:00 24,6 C 18,6 C 45 % 51 % 1004,4 hPa 0,0 l/m 8,7 km/h (2 Bft) SO 0,00 h 0,7 UV-I 94 W/m 8,3 C 17,4 C 18,8 km/h (3 Bft)
11.05.2016 19:00 24,4 C 17,8 C 45 % 53 % 1004,2 hPa 0,0 l/m 4,8 km/h (1 Bft) O-SO 0,00 h 0,0 UV-I 49 W/m 8,2 C 17,5 C 13,3 km/h (3 Bft)
11.05.2016 20:00 23,7 C 16,7 C 47 % 56 % 1003,9 hPa 0,0 l/m 2,1 km/h (1 Bft) O 0,00 h 0,0 UV-I 14 W/m 7,8 C 16,6 C 7,6 km/h (2 Bft)
11.05.2016 21:00 23,6 C 15,5 C 47 % 61 % 1003,7 hPa 0,0 l/m 0,4 km/h (0 Bft) O-NO 0,00 h 0,0 UV-I 0 W/m 7,9 C 15,5 C 2,4 km/h (1 Bft)
11.05.2016 22:00 23,8 C 14,6 C 48 % 65 % 1003,3 hPa 0,0 l/m 1,9 km/h (1 Bft) O-NO 0,00 h 0,0 UV-I 0 W/m 8,2 C 14,5 C 5,5 km/h (1 Bft)
11.05.2016 23:00 24,3 C 14,8 C 47 % 64 % 1003,0 hPa 0,0 l/m 2,1 km/h (1 Bft) O 0,00 h 0,0 UV-I 0 W/m 8,1 C 14,6 C 6,7 km/h (2 Bft)
12.05.2016 00:00 24,2 C 13,9 C 47 % 70 % 1002,7 hPa 0,0 l/m 1,2 km/h (1 Bft) O 0,00 h 0,0 UV-I 0 W/m 8,4 C 13,9 C 3,7 km/h (1 Bft)
12.05.2016 01:00 24,1 C 13,3 C 48 % 73 % 1002,1 hPa 0,0 l/m 3,1 km/h (1 Bft) O-NO 0,00 h 0,0 UV-I 0 W/m 8,6 C 12,9 C 9,2 km/h (2 Bft)
12.05.2016 02:00 24,1 C 12,9 C 48 % 75 % 1001,7 hPa 0,0 l/m 3,9 km/h (1 Bft) O 0,00 h 0,0 UV-I 0 W/m 8,6 C 12,6 C 12,1 km/h (2 Bft)
12.05.2016 03:00 24,1 C 12,3 C 48 % 78 % 1001,5 hPa 0,0 l/m 1,9 km/h (1 Bft) O-NO 0,00 h 0,0 UV-I 0 W/m 8,7 C 12,3 C 6,7 km/h (2 Bft)
12.05.2016 04:00 24,0 C 11,5 C 49 % 82 % 1000,9 hPa 0,0 l/m 2,6 km/h (1 Bft) O-NO 0,00 h 0,0 UV-I 0 W/m 8,6 C 11,3 C 7,7 km/h (2 Bft)
12.05.2016 05:00 24,0 C 11,9 C 49 % 82 % 1000,3 hPa 0,0 l/m 5,1 km/h (1 Bft) O-NO 0,00 h 0,0 UV-I 6 W/m 8,9 C 11,3 C 13,6 km/h (3 Bft)
12.05.2016 06:00 23,9 C 12,5 C 49 % 82 % 999,9 hPa 0,0 l/m 3,4 km/h (1 Bft) O-NO 0,00 h 0,0 UV-I 21 W/m 9,5 C 12,3 C 9,9 km/h (2 Bft)
12.05.2016 07:00 24,1 C 12,8 C 48 % 83 % 999,7 hPa 0,0 l/m 2,9 km/h (1 Bft) O-NO 0,00 h 0,0 UV-I 43 W/m 9,9 C 12,7 C 8,9 km/h (2 Bft)
12.05.2016 08:00 24,3 C 13,2 C 48 % 83 % 999,6 hPa 0,0 l/m 5,3 km/h (1 Bft) O-NO 0,00 h 0,5 UV-I 60 W/m 10,3 C 12,7 C 13,0 km/h (3 Bft)
12.05.2016 09:00 24,3 C 13,3 C 47 % 83 % 999,6 hPa 0,0 l/m 4,9 km/h (1 Bft) O-NO 0,00 h 0,6 UV-I 59 W/m 10,5 C 12,9 C 10,2 km/h (2 Bft)
12.05.2016 10:00 24,3 C 13,9 C 48 % 82 % 999,4 hPa 0,0 l/m 4,4 km/h (1 Bft) O-NO 0,30 h 1,1 UV-I 138 W/m 10,8 C 13,5 C 11,2 km/h (2 Bft)
12.05.2016 11:00 24,3 C 14,0 C 48 % 82 % 999,2 hPa 0,0 l/m 6,1 km/h (2 Bft) O-NO 0,00 h 0,9 UV-I 101 W/m 10,9 C 13,3 C 14,2 km/h (3 Bft)
12.05.2016 12:00 24,3 C 14,2 C 48 % 82 % 998,9 hPa 0,0 l/m 2,5 km/h (1 Bft) O-NO 0,00 h 0,7 UV-I 68 W/m 11,2 C 14,2 C 7,4 km/h (2 Bft)
12.05.2016 13:00 24,3 C 14,3 C 48 % 82 % 998,5 hPa 0,0 l/m 3,8 km/h (1 Bft) O-NO 0,00 h 0,7 UV-I 71 W/m 11,3 C 14,0 C 10,2 km/h (2 Bft)
12.05.2016 14:00 24,3 C 15,0 C 48 % 78 % 998,1 hPa 0,0 l/m 5,3 km/h (1 Bft) O-NO 0,00 h 0,7 UV-I 68 W/m 11,1 C 14,3 C 13,0 km/h (3 Bft)
12.05.2016 15:00 24,3 C 14,8 C 48 % 78 % 998,0 hPa 0,0 l/m 7,6 km/h (2 Bft) O-NO 0,00 h 0,7 UV-I 78 W/m 11,0 C 13,7 C 18,0 km/h (3 Bft)
12.05.2016 16:00 24,3 C 14,2 C 48 % 84 % 997,8 hPa 0,0 l/m 9,0 km/h (2 Bft) O-NO 0,12 h 0,8 UV-I 107 W/m 11,5 C 12,7 C 20,4 km/h (4 Bft)
12.05.2016 17:00 24,4 C 13,8 C 48 % 86 % 997,4 hPa 0,0 l/m 10,2 km/h (2 Bft) O-NO 0,13 h 0,8 UV-I 114 W/m 11,6 C 11,7 C 21,5 km/h (4 Bft)
12.05.2016 18:00 24,4 C 13,2 C 48 % 85 % 997,4 hPa 0,0 l/m 8,1 km/h (2 Bft) O-NO 0,00 h 0,6 UV-I 61 W/m 10,8 C 11,9 C 17,6 km/h (3 Bft)
12.05.2016 19:00 24,3 C 13,0 C 48 % 84 % 997,5 hPa 0,0 l/m 7,3 km/h (2 Bft) O-NO 0,00 h 0,0 UV-I 12 W/m 10,3 C 12,0 C 16,3 km/h (3 Bft)
12.05.2016 20:00 24,3 C 12,5 C 48 % 86 % 997,4 hPa 0,0 l/m 8,1 km/h (2 Bft) O-NO 0,00 h 0,0 UV-I 7 W/m 10,1 C 11,0 C 18,8 km/h (3 Bft)
12.05.2016 21:00 24,3 C 12,2 C 48 % 87 % 997,6 hPa 0,0 l/m 7,4 km/h (2 Bft) O-NO 0,00 h 0,0 UV-I 0 W/m 10,1 C 11,2 C 16,3 km/h (3 Bft)
12.05.2016 22:00 24,5 C 12,4 C 48 % 86 % 997,6 hPa 0,0 l/m 8,8 km/h (2 Bft) O-NO 0,00 h 0,0 UV-I 0 W/m 10,1 C 10,8 C 18,4 km/h (3 Bft)
12.05.2016 23:00 24,3 C 12,2 C 48 % 87 % 997,3 hPa 0,0 l/m 7,0 km/h (2 Bft) O-NO 0,00 h 0,0 UV-I 0 W/m 10,2 C 11,3 C 16,6 km/h (3 Bft)
13.05.2016 00:00 24,1 C 11,9 C 48 % 89 % 997,1 hPa 0,0 l/m 3,9 km/h (1 Bft) O-NO 0,00 h 0,0 UV-I 0 W/m 10,2 C 11,7 C 10,7 km/h (2 Bft)
13.05.2016 01:00 24,0 C 12,0 C 48 % 88 % 997,0 hPa 0,0 l/m 3,5 km/h (1 Bft) O-NO 0,00 h 0,0 UV-I 0 W/m 10,1 C 11,8 C 9,4 km/h (2 Bft)
13.05.2016 02:00 23,9 C 11,6 C 49 % 91 % 996,8 hPa 0,4 l/m 1,9 km/h (1 Bft) N-NO 0,00 h 0,0 UV-I 0 W/m 10,2 C 11,5 C 6,9 km/h (2 Bft)
13.05.2016 03:00 23,9 C 11,3 C 49 % 92 % 996,5 hPa 0,0 l/m 0,0 km/h (0 Bft) N 0,00 h 0,0 UV-I 0 W/m 10,1 C 11,3 C 0,0 km/h (0 Bft)
13.05.2016 04:00 23,8 C 11,2 C 49 % 92 % 996,3 hPa 0,0 l/m 0,2 km/h (0 Bft) N 0,00 h 0,0 UV-I 0 W/m 10,0 C 11,2 C 1,1 km/h (0 Bft)
13.05.2016 05:00 23,8 C 11,1 C 49 % 91 % 996,0 hPa 0,0 l/m 1,1 km/h (1 Bft) N 0,00 h 0,0 UV-I 7 W/m 9,6 C 11,1 C 3,6 km/h (1 Bft)
13.05.2016 06:00 23,8 C 11,6 C 49 % 90 % 995,9 hPa 0,0 l/m 1,1 km/h (1 Bft) N 0,00 h 0,0 UV-I 17 W/m 9,9 C 11,6 C 3,4 km/h (1 Bft)
13.05.2016 07:00 23,9 C 12,3 C 49 % 89 % 996,2 hPa 0,0 l/m 2,6 km/h (1 Bft) N 0,00 h 0,0 UV-I 48 W/m 10,6 C 12,3 C 5,5 km/h (1 Bft)
13.05.2016 08:00 23,8 C 13,2 C 49 % 87 % 996,4 hPa 0,0 l/m 2,4 km/h (1 Bft) N-NW 0,20 h 0,8 UV-I 121 W/m 11,1 C 13,0 C 5,6 km/h (1 Bft)
13.05.2016 09:00 23,8 C 14,5 C 49 % 83 % 996,5 hPa 0,0 l/m 8,3 km/h (2 Bft) N 1,00 h 1,4 UV-I 230 W/m 11,7 C 13,2 C 13,2 km/h (3 Bft)
13.05.2016 10:00 23,9 C 16,1 C 49 % 78 % 996,5 hPa 0,0 l/m 8,1 km/h (2 Bft) N-NW 1,00 h 2,7 UV-I 435 W/m 12,3 C 15,1 C 15,6 km/h (3 Bft)
13.05.2016 11:00 23,8 C 17,9 C 49 % 73 % 996,5 hPa 0,0 l/m 10,9 km/h (2 Bft) N 1,00 h 3,4 UV-I 436 W/m 12,9 C 16,0 C 19,6 km/h (3 Bft)
13.05.2016 12:00 24,1 C 18,2 C 50 % 70 % 996,8 hPa 0,0 l/m 12,9 km/h (3 Bft) N 1,00 h 2,7 UV-I 366 W/m 12,7 C 15,9 C 19,5 km/h (3 Bft)
13.05.2016 13:00 24,1 C 18,8 C 49 % 67 % 997,0 hPa 0,0 l/m 13,5 km/h (3 Bft) N 0,97 h 2,9 UV-I 364 W/m 12,5 C 16,4 C 22,9 km/h (4 Bft)
13.05.2016 14:00 24,1 C 15,5 C 49 % 72 % 997,9 hPa 0,0 l/m 6,8 km/h (2 Bft) O-NO 0,07 h 1,1 UV-I 80 W/m 10,5 C 14,6 C 14,6 km/h (3 Bft)
13.05.2016 15:00 24,1 C 16,1 C 49 % 74 % 997,5 hPa 0,0 l/m 0,6 km/h (0 Bft) W-NW 0,92 h 3,0 UV-I 486 W/m 11,4 C 16,1 C 1,4 km/h (1 Bft)
13.05.2016 16:00 24,2 C 20,4 C 49 % 57 % 997,1 hPa 0,0 l/m 14,8 km/h (3 Bft) N 1,00 h 2,6 UV-I 607 W/m 11,6 C 17,9 C 19,4 km/h (3 Bft)
13.05.2016 17:00 24,3 C 19,2 C 49 % 60 % 997,2 hPa 0,0 l/m 9,8 km/h (2 Bft) N 0,42 h 1,2 UV-I 220 W/m 11,2 C 17,7 C 18,0 km/h (3 Bft)
13.05.2016 18:00 24,4 C 17,2 C 50 % 66 % 997,9 hPa 0,0 l/m 12,8 km/h (3 Bft) N-NO 0,02 h 0,6 UV-I 106 W/m 10,7 C 14,7 C 22,6 km/h (4 Bft)
13.05.2016 19:00 24,4 C 16,3 C 50 % 70 % 998,3 hPa 0,0 l/m 2,6 km/h (1 Bft) N-NO 0,00 h 0,0 UV-I 58 W/m 10,7 C 16,2 C 7,0 km/h (2 Bft)
13.05.2016 20:00 24,3 C 15,4 C 50 % 72 % 999,0 hPa 0,0 l/m 8,7 km/h (2 Bft) N 0,00 h 0,0 UV-I 18 W/m 10,3 C 13,9 C 16,2 km/h (3 Bft)
13.05.2016 21:00 24,3 C 14,0 C 50 % 76 % 999,9 hPa 0,0 l/m 5,1 km/h (1 Bft) N-NO 0,00 h 0,0 UV-I 0 W/m 9,8 C 13,2 C 10,6 km/h (2 Bft)
13.05.2016 22:00 24,4 C 13,3 C 50 % 79 % 1000,3 hPa 0,0 l/m 5,9 km/h (2 Bft) N-NO 0,00 h 0,0 UV-I 0 W/m 9,7 C 12,4 C 12,1 km/h (2 Bft)
13.05.2016 23:00 24,2 C 12,8 C 50 % 83 % 1000,5 hPa 0,0 l/m 0,5 km/h (0 Bft) N 0,00 h 0,0 UV-I 0 W/m 10,0 C 12,8 C 2,3 km/h (1 Bft)
14.05.2016 00:00 24,1 C 12,3 C 50 % 86 % 1000,8 hPa 0,0 l/m 0,0 km/h (0 Bft) N 0,00 h 0,0 UV-I 0 W/m 10,0 C 12,3 C 0,0 km/h (0 Bft)
14.05.2016 01:00 24,0 C 11,6 C 51 % 91 % 1000,9 hPa 0,0 l/m 0,0 km/h (0 Bft) N 0,00 h 0,0 UV-I 0 W/m 10,1 C 11,6 C 0,0 km/h (0 Bft)
14.05.2016 02:00 23,9 C 10,9 C 51 % 87 % 1001,0 hPa 0,0 l/m 0,3 km/h (0 Bft) NW 0,00 h 0,0 UV-I 0 W/m 8,8 C 10,9 C 1,0 km/h (0 Bft)
14.05.2016 03:00 23,9 C 9,7 C 51 % 85 % 1001,2 hPa 0,0 l/m 0,0 km/h (0 Bft) N 0,00 h 0,0 UV-I 0 W/m 7,4 C 9,7 C 0,0 km/h (0 Bft)
14.05.2016 04:00 23,8 C 8,5 C 51 % 89 % 1001,7 hPa 0,0 l/m 0,0 km/h (0 Bft) N 0,00 h 0,0 UV-I 0 W/m 6,8 C 8,5 C 0,0 km/h (0 Bft)
14.05.2016 05:00 23,8 C 7,4 C 51 % 91 % 1002,2 hPa 0,0 l/m 0,0 km/h (0 Bft) N 0,00 h 0,0 UV-I 10 W/m 6,0 C 7,4 C 0,0 km/h (0 Bft)
14.05.2016 06:00 23,8 C 6,7 C 51 % 92 % 1002,7 hPa 0,0 l/m 0,0 km/h (0 Bft) N 0,00 h 0,0 UV-I 27 W/m 5,6 C 6,7 C 0,1 km/h (0 Bft)
14.05.2016 07:00 24,1 C 9,1 C 51 % 81 % 1003,2 hPa 0,0 l/m 1,5 km/h (1 Bft) N 0,55 h 0,7 UV-I 180 W/m 6,0 C 9,1 C 3,5 km/h (1 Bft)
14.05.2016 08:00 24,2 C 10,9 C 50 % 76 % 1003,5 hPa 0,0 l/m 3,5 km/h (1 Bft) N 0,60 h 1,1 UV-I 199 W/m 6,8 C 10,7 C 7,1 km/h (2 Bft)
14.05.2016 09:00 24,2 C 12,7 C 48 % 73 % 1003,8 hPa 0,0 l/m 3,7 km/h (1 Bft) N 1,00 h 2,0 UV-I 408 W/m 8,0 C 12,5 C 7,2 km/h (2 Bft)
14.05.2016 10:00 24,1 C 14,4 C 47 % 66 % 1004,2 hPa 0,0 l/m 5,2 km/h (1 Bft) N-NW 1,00 h 2,9 UV-I 433 W/m 8,0 C 14,0 C 9,5 km/h (2 Bft)
14.05.2016 11:00 24,0 C 15,5 C 46 % 62 % 1004,8 hPa 0,0 l/m 8,8 km/h (2 Bft) N 1,00 h 4,3 UV-I 765 W/m 8,2 C 14,0 C 15,6 km/h (3 Bft)
14.05.2016 12:00 24,0 C 15,5 C 46 % 59 % 1005,2 hPa 0,0 l/m 7,3 km/h (2 Bft) NW 1,00 h 4,0 UV-I 603 W/m 7,6 C 14,3 C 13,7 km/h (3 Bft)
14.05.2016 13:00 24,3 C 15,5 C 47 % 57 % 1005,3 hPa 0,0 l/m 5,2 km/h (1 Bft) NW 1,00 h 3,5 UV-I 515 W/m 7,0 C 15,1 C 12,0 km/h (2 Bft)
14.05.2016 14:00 24,3 C 15,2 C 45 % 57 % 1005,2 hPa 0,0 l/m 5,0 km/h (1 Bft) NW 0,90 h 2,8 UV-I 369 W/m 6,7 C 14,8 C 10,5 km/h (2 Bft)
14.05.2016 15:00 24,2 C 15,3 C 44 % 57 % 1005,1 hPa 0,0 l/m 8,2 km/h (2 Bft) NW 0,65 h 1,7 UV-I 237 W/m 6,8 C 14,1 C 14,9 km/h (3 Bft)
14.05.2016 16:00 24,1 C 13,7 C 43 % 61 % 1005,9 hPa 0,0 l/m 13,2 km/h (3 Bft) N-NW 0,80 h 1,7 UV-I 253 W/m 6,4 C 10,4 C 22,0 km/h (4 Bft)
14.05.2016 17:00 24,1 C 11,9 C 43 % 65 % 1007,0 hPa 0,0 l/m 12,7 km/h (3 Bft) N 0,55 h 1,0 UV-I 189 W/m 5,5 C 8,5 C 20,8 km/h (4 Bft)
14.05.2016 18:00 24,1 C 10,0 C 42 % 65 % 1007,7 hPa 0,0 l/m 10,5 km/h (2 Bft) NW 0,00 h 0,5 UV-I 84 W/m 3,7 C 7,4 C 16,1 km/h (3 Bft)
14.05.2016 19:00 24,1 C 9,8 C 41 % 65 % 1008,3 hPa 0,0 l/m 5,3 km/h (1 Bft) N-NW 0,00 h 0,5 UV-I 36 W/m 3,5 C 9,1 C 10,4 km/h (2 Bft)
14.05.2016 20:00 24,1 C 8,6 C 41 % 61 % 1009,2 hPa 0,0 l/m 8,8 km/h (2 Bft) N-NW 0,00 h 0,0 UV-I 13 W/m 1,4 C 6,6 C 14,4 km/h (3 Bft)
14.05.2016 21:00 24,3 C 7,4 C 41 % 60 % 1010,2 hPa 0,0 l/m 3,2 km/h (1 Bft) N-NW 0,00 h 0,0 UV-I 0 W/m 0,2 C 7,1 C 7,0 km/h (2 Bft)
14.05.2016 22:00 24,4 C 6,3 C 41 % 66 % 1010,8 hPa 0,0 l/m 0,1 km/h (0 Bft) NW 0,00 h 0,0 UV-I 0 W/m 0,4 C 6,3 C 0,3 km/h (0 Bft)
14.05.2016 23:00 24,1 C 4,4 C 42 % 77 % 1011,4 hPa 0,0 l/m 0,0 km/h (0 Bft) N 0,00 h 0,0 UV-I 0 W/m 0,7 C 4,4 C 0,0 km/h (0 Bft)
15.05.2016 00:00 23,9 C 3,4 C 43 % 81 % 1011,9 hPa 0,0 l/m 0,0 km/h (0 Bft) W-NW 0,00 h 0,0 UV-I 0 W/m 0,4 C 3,4 C 0,3 km/h (0 Bft)
15.05.2016 01:00 23,7 C 4,2 C 43 % 80 % 1012,3 hPa 0,0 l/m 0,3 km/h (0 Bft) NW 0,00 h 0,0 UV-I 0 W/m 1,1 C 4,2 C 1,2 km/h (1 Bft)
15.05.2016 02:00 23,7 C 4,9 C 44 % 78 % 1012,7 hPa 0,0 l/m 1,0 km/h (0 Bft) N-NW 0,00 h 0,0 UV-I 0 W/m 1,4 C 4,9 C 2,5 km/h (1 Bft)
15.05.2016 03:00 23,6 C 4,5 C 45 % 79 % 1013,0 hPa 0,0 l/m 1,6 km/h (1 Bft) W 0,00 h 0,0 UV-I 0 W/m 1,2 C 4,3 C 3,7 km/h (1 Bft)
15.05.2016 04:00 23,6 C 4,4 C 45 % 77 % 1013,4 hPa 0,0 l/m 3,8 km/h (1 Bft) W 0,00 h 0,0 UV-I 0 W/m 0,7 C 4,4 C 7,7 km/h (2 Bft)
15.05.2016 05:00 23,6 C 3,8 C 45 % 78 % 1013,8 hPa 0,0 l/m 4,7 km/h (1 Bft) W 0,00 h 0,0 UV-I 8 W/m 0,4 C 3,7 C 8,2 km/h (2 Bft)
15.05.2016 06:00 23,8 C 3,7 C 45 % 80 % 1014,2 hPa 0,0 l/m 3,0 km/h (1 Bft) W 0,00 h 0,0 UV-I 25 W/m 0,5 C 3,6 C 6,5 km/h (2 Bft)
15.05.2016 07:00 23,8 C 5,0 C 43 % 72 % 1014,6 hPa 0,0 l/m 4,1 km/h (1 Bft) W 0,58 h 0,8 UV-I 200 W/m 0,4 C 4,4 C 8,7 km/h (2 Bft)
15.05.2016 08:00 23,8 C 5,9 C 43 % 65 % 1015,1 hPa 0,0 l/m 10,3 km/h (2 Bft) W-NW 0,60 h 0,9 UV-I 188 W/m -0,1 C 2,7 C 17,6 km/h (3 Bft)
15.05.2016 09:00 23,8 C 6,1 C 42 % 65 % 1015,5 hPa 0,0 l/m 8,2 km/h (2 Bft) W 0,68 h 1,1 UV-I 184 W/m -0,0 C 4,0 C 14,3 km/h (3 Bft)
15.05.2016 10:00 23,8 C 6,3 C 43 % 65 % 1015,9 hPa 0,0 l/m 8,3 km/h (2 Bft) W 0,27 h 0,9 UV-I 126 W/m 0,1 C 4,3 C 13,2 km/h (3 Bft)
15.05.2016 11:00 24,1 C 6,6 C 44 % 64 % 1016,2 hPa 0,0 l/m 7,1 km/h (2 Bft) W 0,52 h 1,3 UV-I 170 W/m 0,3 C 5,0 C 12,1 km/h (2 Bft)
15.05.2016 12:00 23,9 C 8,5 C 42 % 57 % 1016,3 hPa 0,0 l/m 11,7 km/h (2 Bft) W-NW 0,83 h 3,6 UV-I 515 W/m 0,4 C 5,0 C 19,0 km/h (3 Bft)
15.05.2016 13:00 24,0 C 8,4 C 41 % 56 % 1016,5 hPa 0,0 l/m 9,0 km/h (2 Bft) W-SW 0,83 h 2,8 UV-I 411 W/m 0,1 C 6,0 C 15,8 km/h (3 Bft)
15.05.2016 14:00 24,0 C 10,1 C 40 % 52 % 1016,3 hPa 0,0 l/m 13,3 km/h (3 Bft) W 1,00 h 4,7 UV-I 790 W/m 0,7 C 6,1 C 21,5 km/h (4 Bft)
15.05.2016 15:00 24,1 C 9,7 C 40 % 53 % 1016,4 hPa 0,0 l/m 12,4 km/h (3 Bft) W-SW 0,75 h 2,1 UV-I 379 W/m 0,4 C 6,2 C 21,8 km/h (4 Bft)
15.05.2016 16:00 24,1 C 9,5 C 40 % 60 % 1016,7 hPa 0,0 l/m 10,0 km/h (2 Bft) W-NW 0,93 h 2,6 UV-I 540 W/m 2,3 C 7,1 C 17,2 km/h (3 Bft)
15.05.2016 17:00 24,2 C 7,7 C 41 % 69 % 1017,2 hPa 0,0 l/m 10,6 km/h (2 Bft) W 0,25 h 0,8 UV-I 139 W/m 2,2 C 4,6 C 17,7 km/h (3 Bft)
15.05.2016 18:00 24,3 C 6,8 C 43 % 73 % 1017,4 hPa 0,0 l/m 6,4 km/h (2 Bft) W-SW 0,10 h 0,6 UV-I 107 W/m 2,3 C 5,3 C 12,4 km/h (3 Bft)
15.05.2016 19:00 24,2 C 6,7 C 43 % 75 % 1017,4 hPa 0,0 l/m 7,0 km/h (2 Bft) W 0,00 h 0,5 UV-I 59 W/m 2,5 C 5,1 C 13,2 km/h (3 Bft)
15.05.2016 20:00 24,0 C 5,4 C 42 % 81 % 1018,0 hPa 0,0 l/m 4,4 km/h (1 Bft) W-SW 0,00 h 0,0 UV-I 13 W/m 2,4 C 4,2 C 7,9 km/h (2 Bft)
15.05.2016 21:00 24,2 C 4,7 C 43 % 86 % 1018,5 hPa 0,0 l/m 0,0 km/h (0 Bft) N 0,00 h 0,0 UV-I 0 W/m 2,5 C 4,7 C 0,1 km/h (0 Bft)
15.05.2016 22:00 24,2 C 4,8 C 43 % 87 % 1018,8 hPa 0,2 l/m 1,4 km/h (1 Bft) W-NW 0,00 h 0,0 UV-I 0 W/m 2,9 C 4,8 C 3,4 km/h (1 Bft)
15.05.2016 23:00 23,9 C 4,7 C 43 % 89 % 1018,8 hPa 0,0 l/m 0,7 km/h (0 Bft) SW 0,00 h 0,0 UV-I 0 W/m 2,9 C 4,7 C 2,5 km/h (1 Bft)
Min-Datum _ 09.05.16 15.05.16 15.05.16 09.05.16 13.05.16 - 09.05.16 - - - - 15.05.16 15.05.16 09.05.16
_ Min-Zeit 05:14 00:40 16:09 17:03 06:10 - 00:00 - - - - 13:15 08:55 00:30
Minimum _ 23,4 C 3,0 C 35 % 33 % 995,9 hPa - 0,0 km/h (0 Bft) - - - - -1,1 C -2,2 C 0,0 km/h (0 Bft)
Max-Datum _ 10.05.16 09.05.16 13.05.16 14.05.16 15.05.16 13.05.16 13.05.16 - 09.05.16 15.05.16 15.05.16 13.05.16 10.05.16 13.05.16
_ Max-Zeit 16:05 16:04 18:37 06:36 22:22 02:12 13:46 - 15:42 12:54 12:54 13:39 15:55 18:22
Maximum _ 24,7 C 22,6 C 51 % 94 % 1018,9 hPa 0,4 l/m 27,4 km/h
N (4 Bft)
- 1,00 h 6,4 UV-I 1116 W/m 13,9 C 22,6 C 48,3 km/h
N (6 Bft)
Durchschnitt _ 24,1 C 13,0 C 46 % 71 % 1006,8 hPa #0,6 l/m 4,8 km/h (1 Bft) O-NO #49:02 h 2,0 UV-I 250 W/m 7,5 C 12,3 C 10,2 km/h (2 Bft)